Time;durP1;ratioP1;P1;durP2;ratioP2;P2;SDS_P1;SDS_P2;PMS_P1;PMS_P2;Temp;Humidity;BMP_temperature;BMP_pressure;BME280_temperature;BME280_humidity;BME280_pressure;Samples;Min_cycle;Max_cycle;Signal;HPM_P1;HPM_P2
2022/11/20 00:01:23;;;;;;;20.63;11.23;;;0.30;99.90;;;;;;5035221;28;20053;-48
2022/11/20 00:03:51;;;;;;;18.60;10.88;;;0.30;99.90;;;;;;5035311;28;20047;-57
2022/11/20 00:06:18;;;;;;;18.88;10.95;;;0.40;99.90;;;;;;5017269;28;20045;-46
2022/11/20 00:08:44;;;;;;;17.73;10.75;;;0.30;99.90;;;;;;5017413;28;20120;-49
2022/11/20 00:11:12;;;;;;;18.92;10.70;;;0.40;99.90;;;;;;5035531;28;20044;-49
2022/11/20 00:13:38;;;;;;;19.20;11.63;;;0.20;99.90;;;;;;5035087;28;20108;-51
2022/11/20 00:16:06;;;;;;;20.45;11.05;;;0.20;99.90;;;;;;5035443;28;20375;-49
2022/11/20 00:18:34;;;;;;;18.90;10.27;;;0.30;99.90;;;;;;5035042;28;20048;-49
2022/11/20 00:21:27;;;;;;;20.15;11.32;;;0.30;99.90;;;;;;5035109;28;20053;-51
2022/11/20 00:23:54;;;;;;;17.73;10.13;;;0.40;99.90;;;;;;5031763;28;20516;-47
2022/11/20 00:26:22;;;;;;;18.77;10.15;;;0.50;99.90;;;;;;5035221;28;20030;-52
2022/11/20 00:28:59;;;;;;;18.20;10.85;;;0.70;99.90;;;;;;5034738;28;20045;-49
2022/11/20 00:31:25;;;;;;;18.33;10.43;;;0.70;99.90;;;;;;5049564;28;20531;-48
2022/11/20 00:33:52;;;;;;;18.58;10.38;;;0.70;99.90;;;;;;5054950;28;20037;-51
2022/11/20 00:36:23;;;;;;;19.38;11.68;;;0.60;99.90;;;;;;5036808;28;20033;-49
2022/11/20 00:38:57;;;;;;;18.40;11.13;;;0.50;99.90;;;;;;5054829;28;20039;-49
2022/11/20 00:41:23;;;;;;;19.63;11.68;;;0.50;99.90;;;;;;5037025;28;20041;-52
2022/11/20 00:43:49;;;;;;;20.83;11.23;;;0.60;99.90;;;;;;5053635;28;20045;-49
2022/11/20 00:46:17;;;;;;;16.35;9.60;;;0.80;99.90;;;;;;5054488;28;20127;-50
2022/11/20 00:48:44;;;;;;;19.08;10.48;;;0.80;99.90;;;;;;5054539;28;20041;-49
2022/11/20 00:51:12;;;;;;;22.77;11.60;;;0.80;99.90;;;;;;5054301;28;20079;-48
2022/11/20 00:53:38;;;;;;;18.85;10.73;;;0.90;99.90;;;;;;5036788;28;20120;-49
2022/11/20 00:56:11;;;;;;;17.55;9.60;;;0.80;99.90;;;;;;5054629;28;20084;-48
2022/11/20 00:58:39;;;;;;;17.73;11.43;;;1.00;99.90;;;;;;5035387;28;20405;-51
2022/11/20 01:01:04;;;;;;;17.08;10.30;;;0.90;99.90;;;;;;5034010;28;20110;-50
2022/11/20 01:03:32;;;;;;;21.13;10.75;;;0.90;99.90;;;;;;5034143;28;20057;-49
2022/11/20 01:06:06;;;;;;;18.90;10.55;;;0.80;99.90;;;;;;5016429;28;20041;-46
2022/11/20 01:08:34;;;;;;;18.92;10.18;;;1.00;99.90;;;;;;5034336;28;20065;-45
2022/11/20 01:11:11;;;;;;;19.00;10.45;;;0.90;99.90;;;;;;5034145;28;20048;-48
2022/11/20 01:13:37;;;;;;;19.02;10.88;;;0.90;99.90;;;;;;5034015;28;20126;-48
2022/11/20 01:16:15;;;;;;;21.90;10.55;;;0.80;99.90;;;;;;5034310;28;20037;-47
2022/11/20 01:18:43;;;;;;;16.42;10.20;;;0.80;99.90;;;;;;5016220;28;20052;-49
2022/11/20 01:21:11;;;;;;;22.33;11.77;;;0.80;99.90;;;;;;5033937;28;20037;-47
2022/11/20 01:23:39;;;;;;;18.33;10.35;;;0.90;99.90;;;;;;5049110;28;20044;-47
2022/11/20 01:26:08;;;;;;;18.83;10.95;;;0.90;99.90;;;;;;5036320;28;20056;-49
2022/11/20 01:28:34;;;;;;;18.33;11.45;;;1.00;99.90;;;;;;5035659;28;20044;-48
2022/11/20 01:31:00;;;;;;;18.33;10.98;;;0.90;99.90;;;;;;5053489;28;20397;-49
2022/11/20 01:33:26;;;;;;;21.27;11.32;;;1.00;99.90;;;;;;5035795;28;20043;-47
2022/11/20 01:35:52;;;;;;;18.63;11.90;;;1.00;99.90;;;;;;5053555;28;20045;-48
2022/11/20 01:38:19;;;;;;;20.73;11.45;;;1.00;99.90;;;;;;5035961;28;20048;-47
2022/11/20 01:40:53;;;;;;;18.85;10.80;;;1.10;99.90;;;;;;5053221;28;20044;-46
2022/11/20 01:43:20;;;;;;;18.00;10.77;;;1.10;99.90;;;;;;5053468;28;20037;-47
2022/11/20 01:45:59;;;;;;;16.92;10.18;;;1.10;99.90;;;;;;5053486;28;20385;-47
2022/11/20 01:48:36;;;;;;;18.27;11.23;;;1.20;99.90;;;;;;5053419;28;20044;-47
2022/11/20 01:51:03;;;;;;;19.45;10.38;;;1.10;99.90;;;;;;5035318;28;20126;-46
2022/11/20 01:53:35;;;;;;;19.45;10.77;;;1.10;99.90;;;;;;5053263;28;20041;-48
2022/11/20 01:56:03;;;;;;;19.00;10.75;;;1.00;99.90;;;;;;5053425;28;20134;-48
2022/11/20 01:58:33;;;;;;;16.98;10.65;;;1.00;99.90;;;;;;5035325;28;20042;-51
2022/11/20 02:00:59;;;;;;;19.55;11.27;;;1.10;99.90;;;;;;5033070;28;20405;-50
2022/11/20 02:03:26;;;;;;;18.83;10.98;;;1.10;99.90;;;;;;5015571;28;20551;-48
2022/11/20 02:06:01;;;;;;;19.65;11.07;;;1.20;99.90;;;;;;5033177;28;20124;-50
2022/11/20 02:08:27;;;;;;;18.17;10.60;;;1.10;99.90;;;;;;5032973;28;20397;-46
2022/11/20 02:10:53;;;;;;;18.65;10.82;;;1.10;99.90;;;;;;5033208;28;20051;-48
2022/11/20 02:16:03;;;;;;;17.98;10.00;;;1.20;99.90;;;;;;5032902;28;20052;-46
2022/11/20 02:18:30;;;;;;;20.02;11.20;;;1.10;99.90;;;;;;5032824;28;20040;-50
2022/11/20 02:21:05;;;;;;;19.42;11.55;;;1.20;99.90;;;;;;5032784;28;20049;-46
2022/11/20 02:23:56;;;;;;;16.48;9.60;;;1.10;99.90;;;;;;5033084;28;20041;-47
2022/11/20 02:26:23;;;;;;;18.90;10.35;;;1.20;99.90;;;;;;5032872;28;20130;-49
2022/11/20 02:28:50;;;;;;;17.48;10.35;;;1.10;99.90;;;;;;5032673;28;20402;-46
2022/11/20 02:31:16;;;;;;;18.75;10.68;;;1.20;99.90;;;;;;5032488;28;20451;-46
2022/11/20 02:33:42;;;;;;;18.25;10.55;;;1.20;99.90;;;;;;5032712;28;20045;-48
2022/11/20 02:36:12;;;;;;;19.30;11.43;;;1.20;99.90;;;;;;5032738;28;20187;-46
2022/11/20 02:38:38;;;;;;;18.85;9.98;;;0.90;99.90;;;;;;5032745;28;20095;-47
2022/11/20 02:41:03;;;;;;;18.23;11.35;;;0.90;99.90;;;;;;5032444;28;20041;-46
2022/11/20 02:43:29;;;;;;;16.88;11.25;;;0.90;99.90;;;;;;5032394;28;20437;-46
2022/11/20 02:45:55;;;;;;;17.05;10.63;;;0.90;99.90;;;;;;5032282;28;20048;-46
2022/11/20 02:48:20;;;;;;;20.58;11.07;;;1.00;99.90;;;;;;5032580;28;20493;-46
2022/11/20 02:50:46;;;;;;;19.67;10.48;;;1.10;99.90;;;;;;5014419;28;20072;-46
2022/11/20 02:53:11;;;;;;;19.35;10.68;;;1.10;99.90;;;;;;5032499;28;20037;-46
2022/11/20 02:55:37;;;;;;;20.15;10.55;;;1.10;99.90;;;;;;5032539;28;20111;-46
2022/11/20 02:58:03;;;;;;;17.48;11.07;;;1.10;99.90;;;;;;5046307;28;20040;-45
2022/11/20 03:00:29;;;;;;;18.77;10.55;;;1.20;99.90;;;;;;5033737;28;20137;-46
2022/11/20 03:02:54;;;;;;;17.95;11.30;;;1.10;99.90;;;;;;5051746;28;20060;-58
2022/11/20 03:05:20;;;;;;;19.65;11.27;;;1.20;99.90;;;;;;5051965;28;20041;-49
2022/11/20 03:07:46;;;;;;;19.50;11.27;;;1.20;99.90;;;;;;5051696;28;20429;-49
2022/11/20 03:10:11;;;;;;;19.02;10.73;;;1.10;99.90;;;;;;5051977;28;20045;-46
2022/11/20 03:12:37;;;;;;;19.17;10.98;;;1.20;99.90;;;;;;5051975;28;20550;-46
2022/11/20 03:15:03;;;;;;;18.65;10.15;;;1.20;99.90;;;;;;5052156;28;20045;-46
2022/11/20 03:17:30;;;;;;;18.73;11.18;;;1.10;99.90;;;;;;5051937;28;20151;-46
2022/11/20 03:19:56;;;;;;;19.45;10.48;;;1.20;99.90;;;;;;5051953;28;20435;-48
2022/11/20 03:22:22;;;;;;;20.95;11.05;;;1.10;99.90;;;;;;5051869;28;20120;-47
2022/11/20 03:24:47;;;;;;;18.00;10.52;;;1.10;99.90;;;;;;5051884;28;20033;-49
2022/11/20 03:27:13;;;;;;;19.77;11.00;;;1.00;99.90;;;;;;5033740;28;20400;-48
2022/11/20 03:29:39;;;;;;;20.08;9.93;;;1.00;99.90;;;;;;5052140;28;20051;-49
2022/11/20 03:32:05;;;;;;;16.73;9.57;;;1.00;99.90;;;;;;5051699;28;20048;-48
2022/11/20 03:34:30;;;;;;;17.20;9.52;;;1.20;99.90;;;;;;5051930;28;20051;-46
2022/11/20 03:36:56;;;;;;;18.10;9.88;;;1.20;99.90;;;;;;5051790;28;20053;-49
2022/11/20 03:39:21;;;;;;;16.85;9.77;;;1.30;99.90;;;;;;5051999;28;20488;-47
2022/11/20 03:41:47;;;;;;;15.98;9.43;;;1.20;99.90;;;;;;5052029;28;20499;-49
2022/11/20 03:44:13;;;;;;;17.30;10.15;;;1.20;99.90;;;;;;5033824;28;20392;-48
2022/11/20 03:46:38;;;;;;;14.93;8.45;;;1.00;99.90;;;;;;5051887;28;20033;-50
2022/11/20 03:49:05;;;;;;;17.08;9.27;;;1.10;99.90;;;;;;5051674;28;20033;-51
2022/11/20 03:51:33;;;;;;;15.98;8.48;;;1.10;99.90;;;;;;5051739;28;20043;-49
2022/11/20 03:54:01;;;;;;;15.95;9.40;;;1.10;99.90;;;;;;5051844;28;20043;-47
2022/11/20 03:56:29;;;;;;;16.70;9.27;;;1.10;99.90;;;;;;5051394;28;20041;-51
2022/11/20 03:58:55;;;;;;;14.88;8.50;;;1.20;99.90;;;;;;5051851;28;20111;-49
2022/11/20 04:01:30;;;;;;;16.67;9.45;;;1.20;99.90;;;;;;5051523;28;20080;-49
2022/11/20 04:03:56;;;;;;;14.15;8.50;;;1.30;99.90;;;;;;5051526;28;20442;-47
2022/11/20 04:06:25;;;;;;;15.77;9.25;;;1.30;99.90;;;;;;5051432;28;20044;-49
2022/11/20 04:08:50;;;;;;;13.57;7.20;;;1.30;99.90;;;;;;5051456;28;20041;-49
2022/11/20 04:11:25;;;;;;;13.82;7.72;;;1.30;99.90;;;;;;5033741;28;20099;-50
2022/11/20 04:13:53;;;;;;;16.17;8.77;;;1.40;99.90;;;;;;5051608;28;20398;-48
2022/11/20 04:16:20;;;;;;;16.25;8.32;;;1.30;99.90;;;;;;5051539;28;20051;-51
2022/11/20 04:18:46;;;;;;;16.58;8.80;;;1.30;99.90;;;;;;5052200;28;20477;-48
2022/11/20 04:21:12;;;;;;;13.65;8.40;;;1.30;99.90;;;;;;5054687;28;20119;-49
2022/11/20 04:23:39;;;;;;;14.52;8.05;;;1.30;99.90;;;;;;5054924;28;20477;-50
2022/11/20 04:26:09;;;;;;;16.38;8.75;;;1.20;99.90;;;;;;5054888;28;20045;-51
2022/11/20 04:28:36;;;;;;;17.13;8.95;;;1.00;99.90;;;;;;5054817;28;20167;-49
2022/11/20 04:31:07;;;;;;;15.27;7.97;;;0.80;99.90;;;;;;5037062;28;20393;-48
2022/11/20 04:33:33;;;;;;;14.15;8.40;;;0.90;99.90;;;;;;5054823;28;20048;-48
2022/11/20 04:36:09;;;;;;;13.27;8.07;;;1.00;99.90;;;;;;5054769;28;20033;-46
2022/11/20 04:38:35;;;;;;;14.65;7.93;;;0.90;99.90;;;;;;5054808;28;20041;-51
2022/11/20 04:41:03;;;;;;;15.45;8.00;;;0.90;99.90;;;;;;5054532;28;20397;-48
2022/11/20 04:43:30;;;;;;;16.58;8.32;;;1.00;99.90;;;;;;5054614;28;20051;-49
2022/11/20 04:45:57;;;;;;;14.57;7.97;;;1.10;99.90;;;;;;5054538;28;20044;-48
2022/11/20 04:48:23;;;;;;;14.70;8.57;;;1.20;99.90;;;;;;5054387;28;20033;-51
2022/11/20 04:50:49;;;;;;;15.23;8.98;;;1.20;99.90;;;;;;5054404;28;20041;-47
2022/11/20 04:53:15;;;;;;;15.52;8.98;;;1.30;99.90;;;;;;5054548;28;20143;-47
2022/11/20 04:55:41;;;;;;;17.83;8.93;;;1.30;99.90;;;;;;5054485;28;20123;-50
2022/11/20 04:58:07;;;;;;;15.18;9.15;;;1.30;99.90;;;;;;5039498;28;20033;-48
2022/11/20 05:00:33;;;;;;;16.58;9.70;;;1.30;99.90;;;;;;5034629;28;20125;-46
2022/11/20 05:02:59;;;;;;;16.08;8.65;;;1.40;99.90;;;;;;5033949;28;20459;-47
2022/11/20 05:05:25;;;;;;;15.60;9.32;;;1.30;99.90;;;;;;5034234;28;20445;-46
2022/11/20 05:07:51;;;;;;;15.45;8.15;;;1.40;99.90;;;;;;5034114;28;20037;-46
2022/11/20 05:10:16;;;;;;;17.50;9.10;;;1.40;99.90;;;;;;5034235;28;20049;-46
2022/11/20 05:12:42;;;;;;;16.05;9.38;;;1.40;99.90;;;;;;5034265;28;20049;-48
2022/11/20 05:15:08;;;;;;;14.45;8.98;;;1.40;99.90;;;;;;5016427;28;20041;-46
2022/11/20 05:17:34;;;;;;;15.20;9.35;;;1.50;99.90;;;;;;5034053;28;20396;-46
2022/11/20 05:19:59;;;;;;;16.85;9.23;;;1.50;99.90;;;;;;5033931;28;20042;-46
2022/11/20 05:22:25;;;;;;;16.35;9.43;;;1.50;99.90;;;;;;5033841;28;20040;-47
2022/11/20 05:24:50;;;;;;;15.38;9.07;;;1.50;99.90;;;;;;5033941;28;20099;-46
2022/11/20 05:27:16;;;;;;;15.82;9.35;;;1.50;99.90;;;;;;5033978;28;20060;-47
2022/11/20 05:29:42;;;;;;;16.75;9.52;;;1.50;99.90;;;;;;5033868;28;20042;-47
2022/11/20 05:32:09;;;;;;;16.48;9.27;;;1.50;99.90;;;;;;5033811;28;20689;-47
2022/11/20 05:34:35;;;;;;;15.98;9.10;;;1.40;99.90;;;;;;5033582;28;20481;-48
2022/11/20 05:37:01;;;;;;;16.70;9.48;;;1.50;99.90;;;;;;5033941;28;20164;-46
2022/11/20 05:39:27;;;;;;;17.23;9.85;;;1.50;99.90;;;;;;5015624;28;20054;-48
2022/11/20 05:42:29;;;;;;;15.45;9.02;;;1.40;99.90;;;;;;5033699;28;20374;-46
2022/11/20 05:44:39;;;;;;;14.95;9.00;;;1.50;99.90;;;;;;5033294;28;20045;-52
2022/11/20 05:47:05;;;;;;;17.25;10.30;;;1.50;99.90;;;;;;5033529;28;20076;-48
2022/11/20 05:49:32;;;;;;;15.93;8.75;;;1.50;99.90;;;;;;5033360;28;20052;-48
2022/11/20 05:51:57;;;;;;;15.15;8.63;;;1.50;99.90;;;;;;5033205;28;20041;-51
2022/11/20 05:54:23;;;;;;;14.90;8.95;;;1.40;99.90;;;;;;5033421;28;20051;-48
2022/11/20 05:56:49;;;;;;;14.52;8.77;;;1.40;99.90;;;;;;5037476;28;20067;-51
2022/11/20 05:59:15;;;;;;;14.32;8.20;;;1.50;99.90;;;;;;5053431;28;20090;-48
2022/11/20 06:01:40;;;;;;;14.80;8.90;;;1.50;99.90;;;;;;5052991;28;20037;-46
2022/11/20 06:04:06;;;;;;;15.68;9.30;;;1.40;99.90;;;;;;5034747;28;20091;-49
2022/11/20 06:06:32;;;;;;;14.90;9.15;;;1.50;99.90;;;;;;5053149;28;20124;-46
2022/11/20 06:08:58;;;;;;;15.65;8.57;;;1.50;99.90;;;;;;5052837;28;20064;-59
2022/11/20 06:11:25;;;;;;;15.65;8.95;;;1.40;99.90;;;;;;5052650;28;20094;-49
2022/11/20 06:13:51;;;;;;;15.95;8.80;;;1.40;99.90;;;;;;5052927;28;20124;-47
2022/11/20 06:16:19;;;;;;;15.20;8.77;;;1.40;99.90;;;;;;5052862;28;20124;-46
2022/11/20 06:18:45;;;;;;;17.02;9.27;;;1.40;99.90;;;;;;5052484;28;20029;-46
2022/11/20 06:21:15;;;;;;;15.32;8.45;;;1.50;99.90;;;;;;5052953;28;20045;-48
2022/11/20 06:23:41;;;;;;;16.95;10.23;;;1.50;99.90;;;;;;5052293;28;20694;-47
2022/11/20 06:26:13;;;;;;;17.00;9.05;;;1.40;99.90;;;;;;5051940;28;20109;-47
2022/11/20 06:28:39;;;;;;;16.67;8.80;;;1.40;99.90;;;;;;5051599;28;20560;-47
2022/11/20 06:31:06;;;;;;;16.35;9.80;;;1.40;99.90;;;;;;5051658;28;20044;-46
2022/11/20 06:33:32;;;;;;;14.73;8.68;;;1.50;99.90;;;;;;5051460;28;20045;-48
2022/11/20 06:35:59;;;;;;;15.20;8.40;;;1.50;99.90;;;;;;5033602;28;20052;-51
2022/11/20 06:38:26;;;;;;;16.95;9.27;;;1.50;99.90;;;;;;5051679;28;20056;-49
2022/11/20 06:40:51;;;;;;;14.88;8.27;;;1.50;99.90;;;;;;5042058;28;20040;-48
2022/11/20 06:43:17;;;;;;;16.17;9.38;;;1.50;99.90;;;;;;5039581;28;20477;-50
2022/11/20 06:45:43;;;;;;;14.45;8.15;;;1.50;99.90;;;;;;5023107;28;20062;-46
2022/11/20 06:48:09;;;;;;;13.75;8.13;;;1.60;99.90;;;;;;5037428;28;20034;-48
2022/11/20 06:50:36;;;;;;;14.25;7.93;;;1.60;99.90;;;;;;5040737;28;20076;-46
2022/11/20 06:53:03;;;;;;;13.95;8.43;;;1.60;99.90;;;;;;5042214;28;20037;-46
2022/11/20 06:55:30;;;;;;;16.58;9.05;;;1.60;99.90;;;;;;5040625;28;20551;-50
2022/11/20 06:57:55;;;;;;;14.30;8.65;;;1.50;99.90;;;;;;5025138;28;20033;-49
2022/11/20 07:00:21;;;;;;;13.55;8.43;;;1.40;99.90;;;;;;5034122;28;20137;-48
2022/11/20 07:02:48;;;;;;;15.45;9.00;;;1.50;99.90;;;;;;5031331;28;20081;-46
2022/11/20 07:05:13;;;;;;;14.50;8.70;;;1.50;99.90;;;;;;5031345;28;20071;-50
2022/11/20 07:07:39;;;;;;;15.57;9.05;;;1.60;99.90;;;;;;5031623;28;20041;-46
2022/11/20 07:10:05;;;;;;;15.95;9.73;;;1.70;99.90;;;;;;5031519;28;20442;-48
2022/11/20 07:12:31;;;;;;;15.43;8.55;;;1.70;99.90;;;;;;5031097;28;20490;-50
2022/11/20 07:14:56;;;;;;;14.80;8.63;;;1.70;99.90;;;;;;5013387;28;20049;-48
2022/11/20 07:17:22;;;;;;;17.00;9.32;;;1.60;99.90;;;;;;5031269;28;20045;-46
2022/11/20 07:19:48;;;;;;;12.82;6.90;;;1.60;99.90;;;;;;5031151;28;20049;-51
2022/11/20 07:22:13;;;;;;;13.73;6.90;;;1.60;99.90;;;;;;5013794;28;20041;-49
2022/11/20 07:24:39;;;;;;;12.48;6.65;;;1.60;99.90;;;;;;5031033;28;20441;-54
2022/11/20 07:27:05;;;;;;;14.45;7.53;;;1.60;99.90;;;;;;5031320;28;20413;-46
2022/11/20 07:29:30;;;;;;;13.93;7.63;;;1.50;99.90;;;;;;5031218;28;20365;-47
2022/11/20 07:31:56;;;;;;;12.65;6.78;;;1.60;99.90;;;;;;5030624;28;20038;-49
2022/11/20 07:34:22;;;;;;;14.25;6.45;;;1.60;99.90;;;;;;5013015;28;20087;-47
2022/11/20 07:36:48;;;;;;;15.07;7.80;;;1.60;99.90;;;;;;5013240;28;20050;-50
2022/11/20 07:39:13;;;;;;;16.45;8.02;;;1.60;99.90;;;;;;5030557;28;20044;-50
2022/11/20 07:41:39;;;;;;;14.63;7.50;;;1.60;99.90;;;;;;5030590;28;20446;-48
2022/11/20 07:44:05;;;;;;;13.13;6.93;;;1.70;99.90;;;;;;5031252;28;20038;-47
2022/11/20 07:46:31;;;;;;;14.60;7.65;;;1.70;99.90;;;;;;5031082;28;20509;-46
2022/11/20 07:48:56;;;;;;;14.13;7.07;;;1.70;99.90;;;;;;5030884;28;20057;-47
2022/11/20 07:51:22;;;;;;;14.00;7.00;;;1.70;99.90;;;;;;5030925;28;20042;-49
2022/11/20 07:53:53;;;;;;;13.30;6.75;;;1.70;99.90;;;;;;5033310;28;20449;-46
2022/11/20 07:56:18;;;;;;;13.77;7.70;;;1.60;99.90;;;;;;5034326;28;20491;-47
2022/11/20 07:58:44;;;;;;;15.93;8.02;;;1.70;99.90;;;;;;5054027;28;20044;-49
2022/11/20 08:01:10;;;;;;;13.63;7.80;;;1.80;99.90;;;;;;5054037;28;20045;-48
2022/11/20 08:03:37;;;;;;;16.15;7.72;;;1.90;99.90;;;;;;5054296;28;20548;-50
2022/11/20 08:06:03;;;;;;;13.02;7.25;;;2.00;99.90;;;;;;5054327;28;20349;-51
2022/11/20 08:08:29;;;;;;;17.35;8.63;;;1.90;99.90;;;;;;5054485;28;20044;-47
2022/11/20 08:14:11;;;;;;;13.75;7.25;;;1.90;99.90;;;;;;5054298;28;20045;-47
2022/11/20 08:16:27;;;;;;;15.00;7.78;;;2.00;99.90;;;;;;5053916;28;20056;-49
2022/11/20 08:18:53;;;;;;;15.45;7.70;;;2.00;99.90;;;;;;5035797;28;20044;-46
2022/11/20 08:21:19;;;;;;;14.30;7.70;;;2.00;99.90;;;;;;5053495;28;20049;-50
2022/11/20 08:23:45;;;;;;;14.27;6.82;;;2.00;99.90;;;;;;5054107;28;20515;-50
2022/11/20 08:26:10;;;;;;;14.05;7.38;;;1.90;99.90;;;;;;5054026;28;20048;-49
2022/11/20 08:28:36;;;;;;;12.18;6.63;;;1.80;99.90;;;;;;5053890;28;20085;-48
2022/11/20 08:31:03;;;;;;;12.75;7.35;;;1.80;99.90;;;;;;5053765;28;20179;-50
2022/11/20 08:33:30;;;;;;;14.38;7.05;;;1.80;99.90;;;;;;5053893;28;20114;-48
2022/11/20 08:36:03;;;;;;;14.80;7.88;;;2.00;99.90;;;;;;5053738;28;20508;-49
2022/11/20 08:38:29;;;;;;;17.67;7.60;;;1.90;99.90;;;;;;5053830;28;20049;-50
2022/11/20 08:43:46;;;;;;;12.65;7.35;;;1.90;99.90;;;;;;5038413;28;20171;-50
2022/11/20 08:46:12;;;;;;;14.10;7.65;;;1.90;99.90;;;;;;5053511;28;20120;-50
2022/11/20 08:48:38;;;;;;;14.98;7.78;;;2.00;99.90;;;;;;5053849;28;20481;-49
2022/11/20 08:51:04;;;;;;;14.60;8.18;;;2.00;99.90;;;;;;5053602;28;20386;-51
2022/11/20 08:53:29;;;;;;;15.45;8.80;;;1.90;99.90;;;;;;5052950;28;20037;-52
2022/11/20 08:55:57;;;;;;;15.60;7.32;;;1.90;99.90;;;;;;5053316;28;20079;-50
2022/11/20 08:58:22;;;;;;;15.32;8.40;;;2.00;99.90;;;;;;5036416;28;20037;-48
2022/11/20 09:00:48;;;;;;;14.55;7.65;;;2.00;99.90;;;;;;5033412;28;20049;-51
2022/11/20 09:03:14;;;;;;;13.95;7.47;;;2.00;99.90;;;;;;5033375;28;20049;-48
2022/11/20 09:05:39;;;;;;;15.70;8.75;;;2.00;99.90;;;;;;5032910;28;20049;-48
2022/11/20 09:08:05;;;;;;;14.45;7.22;;;2.00;99.90;;;;;;5033575;28;20033;-49
2022/11/20 09:10:32;;;;;;;14.05;7.35;;;2.00;99.90;;;;;;5033109;28;20045;-48
2022/11/20 09:12:57;;;;;;;13.95;7.50;;;2.10;99.90;;;;;;5015328;28;20433;-51
2022/11/20 09:15:25;;;;;;;13.23;7.65;;;2.10;99.90;;;;;;5032998;28;20048;-49
2022/11/20 09:18:02;;;;;;;17.40;9.57;;;2.10;99.90;;;;;;5014960;28;20394;-50
2022/11/20 09:20:29;;;;;;;15.32;8.25;;;2.00;99.90;;;;;;5032334;28;20034;-48
2022/11/20 09:22:55;;;;;;;16.70;8.45;;;2.20;99.90;;;;;;5032399;28;20038;-52
2022/11/20 09:25:21;;;;;;;17.23;9.13;;;2.10;99.90;;;;;;5032799;28;20033;-47
2022/11/20 09:27:47;;;;;;;17.90;8.98;;;2.20;99.90;;;;;;5032538;28;20096;-47
2022/11/20 09:30:14;;;;;;;17.27;8.38;;;2.20;99.90;;;;;;5032770;28;20057;-48
2022/11/20 09:32:40;;;;;;;18.25;8.68;;;2.30;99.90;;;;;;5032456;28;20107;-48
2022/11/20 09:35:06;;;;;;;15.77;9.18;;;2.30;99.90;;;;;;5032716;28;20650;-47
2022/11/20 09:37:32;;;;;;;16.02;8.32;;;2.30;99.90;;;;;;5032289;28;20045;-47
2022/11/20 09:39:58;;;;;;;14.10;7.22;;;2.30;99.90;;;;;;5032383;28;20051;-48
2022/11/20 09:42:45;;;;;;;14.55;7.72;;;2.40;99.90;;;;;;5032515;28;20081;-48
2022/11/20 09:45:28;;;;;;;13.50;7.35;;;2.40;99.90;;;;;;5032364;28;20516;-47
2022/11/20 09:48:22;;;;;;;13.07;7.28;;;2.40;99.90;;;;;;5031500;28;20500;-47
2022/11/20 09:51:41;;;;;;;13.43;7.65;;;2.50;99.90;;;;;;5032289;28;20068;-51
2022/11/20 09:54:17;;;;;;;13.30;7.07;;;2.50;99.90;;;;;;4951034;29;20051;-48
2022/11/20 09:57:23;;;;;;;14.98;8.40;;;2.60;99.90;;;;;;4954904;28;20048;-49
2022/11/20 09:59:55;;;;;;;14.45;7.82;;;2.60;99.90;;;;;;4983596;28;20062;-48
2022/11/20 10:02:36;;;;;;;14.60;7.88;;;2.60;99.90;;;;;;5031980;28;20034;-47
2022/11/20 10:05:20;;;;;;;14.35;7.40;;;2.50;99.90;;;;;;5032928;28;20393;-49
2022/11/20 10:08:09;;;;;;;17.40;10.40;;;2.60;99.90;;;;;;5022546;28;20044;-46
2022/11/20 10:10:52;;;;;;;18.38;9.38;;;2.60;99.90;;;;;;5032124;28;20049;-49
2022/11/20 10:13:42;;;;;;;16.40;9.20;;;2.60;99.90;;;;;;5031804;28;20049;-47
2022/11/20 10:16:26;;;;;;;16.75;9.05;;;2.60;99.90;;;;;;5030948;28;20375;-49
2022/11/20 10:19:01;;;;;;;14.88;8.75;;;2.50;99.90;;;;;;5031669;28;20034;-48
2022/11/20 10:21:47;;;;;;;16.15;9.65;;;2.60;99.90;;;;;;5013644;28;20116;-49
2022/11/20 10:24:54;;;;;;;17.20;9.63;;;2.60;99.90;;;;;;5014036;28;20124;-47
2022/11/20 10:27:53;;;;;;;16.55;10.02;;;2.60;99.90;;;;;;4950858;29;20191;-47
2022/11/20 10:30:21;;;;;;;14.57;9.13;;;2.70;99.90;;;;;;4950962;29;20058;-50
2022/11/20 10:33:06;;;;;;;16.67;9.38;;;2.80;99.90;;;;;;5008043;28;20057;-51
2022/11/20 10:35:31;;;;;;;18.45;10.70;;;2.80;99.90;;;;;;5031503;28;20513;-46
2022/11/20 10:38:05;;;;;;;17.60;9.68;;;2.80;99.90;;;;;;5030978;28;20038;-46
2022/11/20 10:40:37;;;;;;;15.80;8.70;;;2.90;99.90;;;;;;5039782;28;20133;-49
2022/11/20 10:43:12;;;;;;;16.70;9.10;;;3.00;99.90;;;;;;5040398;28;20107;-49
2022/11/20 10:45:58;;;;;;;16.65;9.13;;;3.00;99.90;;;;;;5039453;28;20156;-52
2022/11/20 10:48:26;;;;;;;15.10;8.30;;;3.00;99.90;;;;;;5031241;28;20108;-50
2022/11/20 10:51:37;;;;;;;14.65;8.63;;;3.00;99.90;;;;;;5031236;28;20120;-52
2022/11/20 10:54:21;;;;;;;18.60;9.57;;;3.00;99.90;;;;;;5000684;28;20049;-49
2022/11/20 10:56:52;;;;;;;13.68;7.57;;;3.10;99.90;;;;;;5035937;28;20037;-47
2022/11/20 10:59:38;;;;;;;14.30;8.63;;;3.00;99.90;;;;;;5052203;28;20041;-49
2022/11/20 11:02:18;;;;;;;15.82;8.77;;;3.20;99.90;;;;;;5051953;28;20393;-49
2022/11/20 11:04:47;;;;;;;14.75;8.20;;;2.90;99.90;;;;;;5012296;28;20042;-48
2022/11/20 11:07:16;;;;;;;15.55;8.13;;;2.90;99.90;;;;;;5011980;28;20520;-47
2022/11/20 11:09:54;;;;;;;14.00;7.47;;;2.90;99.90;;;;;;5011536;28;20046;-47
2022/11/20 11:12:22;;;;;;;13.60;7.80;;;2.90;99.90;;;;;;5010979;28;20056;-46
2022/11/20 11:14:50;;;;;;;14.95;8.35;;;2.80;99.90;;;;;;5012589;28;20184;-48
2022/11/20 11:17:30;;;;;;;14.57;8.35;;;2.80;99.90;;;;;;5012522;28;20052;-52
2022/11/20 11:20:07;;;;;;;15.70;7.85;;;2.80;99.90;;;;;;5012256;28;20057;-50
2022/11/20 11:22:44;;;;;;;13.70;7.80;;;2.70;99.90;;;;;;5012059;28;20034;-48
2022/11/20 11:25:28;;;;;;;14.90;8.05;;;2.70;99.90;;;;;;5012415;28;20046;-48
2022/11/20 11:27:57;;;;;;;15.10;8.25;;;2.80;99.90;;;;;;5013512;28;20049;-47
2022/11/20 11:30:25;;;;;;;14.75;8.27;;;2.70;99.90;;;;;;5016441;28;20042;-48
2022/11/20 11:32:50;;;;;;;17.17;8.07;;;2.80;99.90;;;;;;5016163;28;20071;-49
2022/11/20 11:35:27;;;;;;;14.80;8.02;;;2.80;99.90;;;;;;5016513;28;20506;-48
2022/11/20 11:38:11;;;;;;;15.35;8.55;;;2.80;99.90;;;;;;5016154;28;20053;-49
2022/11/20 11:40:39;;;;;;;16.02;8.48;;;2.60;99.90;;;;;;5015765;28;20479;-47
2022/11/20 11:45:04;;;;;;;12.15;7.63;;;2.60;99.90;;;;;;5015699;28;20029;-50
2022/11/20 11:46:02;;;;;;;16.13;7.68;;;2.60;99.90;;;;;;5015694;28;20441;-50
2022/11/20 11:48:28;;;;;;;14.82;8.27;;;2.70;99.90;;;;;;5015783;28;20041;-46
2022/11/20 11:50:53;;;;;;;13.70;7.40;;;2.70;99.90;;;;;;5015816;28;20375;-49
2022/11/20 11:53:26;;;;;;;14.90;7.95;;;2.60;99.90;;;;;;5015667;28;20038;-48
2022/11/20 11:56:13;;;;;;;13.63;7.28;;;2.70;99.90;;;;;;5015466;28;20482;-47
2022/11/20 11:58:48;;;;;;;14.68;7.05;;;2.80;99.90;;;;;;4996514;28;20046;-47
2022/11/20 12:01:29;;;;;;;13.77;6.85;;;2.90;99.90;;;;;;4994604;28;20068;-49
2022/11/20 12:04:27;;;;;;;13.32;6.32;;;2.90;99.90;;;;;;5007093;28;20060;-47
2022/11/20 12:07:00;;;;;;;13.10;6.50;;;2.90;99.90;;;;;;5015490;28;20073;-48
2022/11/20 12:09:37;;;;;;;11.95;6.10;;;2.90;99.90;;;;;;5014223;28;20037;-47
2022/11/20 12:12:13;;;;;;;12.80;6.63;;;3.00;99.90;;;;;;5015166;28;20359;-50
2022/11/20 12:14:42;;;;;;;11.65;5.63;;;3.10;99.90;;;;;;5015322;28;20038;-48
2022/11/20 12:17:12;;;;;;;9.30;5.45;;;3.20;99.90;;;;;;5015622;28;20038;-49
2022/11/20 12:19:37;;;;;;;9.25;5.43;;;3.30;99.90;;;;;;5015417;28;20419;-47
2022/11/20 12:22:28;;;;;;;8.00;4.35;;;3.30;99.90;;;;;;5015266;28;20267;-48
2022/11/20 12:25:25;;;;;;;9.25;4.65;;;3.40;99.90;;;;;;5013197;28;20516;-50
2022/11/20 12:28:09;;;;;;;8.10;4.15;;;3.60;99.90;;;;;;5013365;28;20085;-58
2022/11/20 12:30:45;;;;;;;8.68;4.50;;;3.80;99.90;;;;;;5014112;28;20038;-61
2022/11/20 12:33:48;;;;;;;10.07;4.85;;;3.70;99.90;;;;;;5021901;28;20037;-61
2022/11/20 12:36:25;;;;;;;9.50;4.45;;;3.80;99.90;;;;;;5026097;28;20045;-61
2022/11/20 12:39:08;;;;;;;8.60;4.38;;;3.80;99.90;;;;;;5024834;28;20042;-60
2022/11/20 12:45:24;;;;;;;9.48;4.75;;;3.80;99.90;;;;;;5023924;28;20045;-61
2022/11/20 12:48:29;;;;;;;8.40;4.47;;;3.80;99.90;;;;;;5023665;28;20038;-61
2022/11/20 12:51:28;;;;;;;11.52;5.65;;;3.80;99.90;;;;;;4993236;28;20485;-61
2022/11/20 12:53:57;;;;;;;10.10;5.07;;;3.70;99.90;;;;;;5034387;28;20049;-61
2022/11/20 12:56:34;;;;;;;11.90;4.88;;;3.70;99.90;;;;;;5033132;28;20071;-61
2022/11/20 12:59:00;;;;;;;8.50;4.57;;;3.70;99.90;;;;;;5013418;28;20038;-61
2022/11/20 13:02:05;;;;;;;9.02;4.85;;;3.80;99.90;;;;;;5013292;28;20061;-61
2022/11/20 13:04:36;;;;;;;9.82;4.65;;;3.70;99.90;;;;;;5030965;28;20413;-60
2022/11/20 13:07:06;;;;;;;10.13;4.70;;;3.80;99.90;;;;;;5033228;28;20045;-61
2022/11/20 13:09:33;;;;;;;8.85;4.70;;;3.80;99.90;;;;;;5032932;28;20092;-61
2022/11/20 13:12:05;;;;;;;9.82;4.95;;;3.70;99.90;;;;;;5032838;28;20042;-61
2022/11/20 13:14:47;;;;;;;9.35;4.40;;;3.80;99.90;;;;;;5033187;28;20064;-61